sensor_id;sensor_type;location;lat;lon;timestamp;temperature;humidity
72320;SHT30;60269;52.502;16.732;2022-09-09T00:00:11;15.14;99.99
72320;SHT30;60269;52.502;16.732;2022-09-09T00:04:41;15.19;99.99
72320;SHT30;60269;52.502;16.732;2022-09-09T00:09:21;15.24;99.99
72320;SHT30;60269;52.502;16.732;2022-09-09T00:13:01;15.28;99.99
72320;SHT30;60269;52.502;16.732;2022-09-09T00:16:44;15.36;99.99
72320;SHT30;60269;52.502;16.732;2022-09-09T00:20:45;15.38;99.99
72320;SHT30;60269;52.502;16.732;2022-09-09T00:24:43;15.50;99.99
72320;SHT30;60269;52.502;16.732;2022-09-09T00:28:48;15.58;99.99
72320;SHT30;60269;52.502;16.732;2022-09-09T00:32:31;15.77;99.99
72320;SHT30;60269;52.502;16.732;2022-09-09T00:36:26;15.98;99.99
72320;SHT30;60269;52.502;16.732;2022-09-09T00:40:23;16.10;99.99
72320;SHT30;60269;52.502;16.732;2022-09-09T00:44:33;16.16;99.99
72320;SHT30;60269;52.502;16.732;2022-09-09T00:48:13;16.16;99.99
72320;SHT30;60269;52.502;16.732;2022-09-09T00:56:16;16.23;99.99
72320;SHT30;60269;52.502;16.732;2022-09-09T01:04:09;16.25;99.99
72320;SHT30;60269;52.502;16.732;2022-09-09T01:12:22;16.23;99.90
72320;SHT30;60269;52.502;16.732;2022-09-09T01:16:15;16.20;99.78
72320;SHT30;60269;52.502;16.732;2022-09-09T01:20:17;16.16;99.76
72320;SHT30;60269;52.502;16.732;2022-09-09T01:24:22;16.04;99.70
72320;SHT30;60269;52.502;16.732;2022-09-09T01:28:21;15.89;99.74
72320;SHT30;60269;52.502;16.732;2022-09-09T01:32:43;15.75;99.91
72320;SHT30;60269;52.502;16.732;2022-09-09T01:36:37;15.65;99.99
72320;SHT30;60269;52.502;16.732;2022-09-09T01:40:29;15.57;99.99
72320;SHT30;60269;52.502;16.732;2022-09-09T01:44:14;15.47;99.99
72320;SHT30;60269;52.502;16.732;2022-09-09T01:48:06;15.43;99.99
72320;SHT30;60269;52.502;16.732;2022-09-09T01:51:53;15.36;99.99
72320;SHT30;60269;52.502;16.732;2022-09-09T01:55:40;15.27;99.99
72320;SHT30;60269;52.502;16.732;2022-09-09T02:00:10;15.33;99.99
72320;SHT30;60269;52.502;16.732;2022-09-09T02:04:05;15.20;99.99
72320;SHT30;60269;52.502;16.732;2022-09-09T02:08:08;15.03;99.99
72320;SHT30;60269;52.502;16.732;2022-09-09T02:12:03;15.06;99.99
72320;SHT30;60269;52.502;16.732;2022-09-09T02:16:07;15.17;99.99
72320;SHT30;60269;52.502;16.732;2022-09-09T02:20:12;15.34;99.99
72320;SHT30;60269;52.502;16.732;2022-09-09T02:23:59;15.40;99.99
72320;SHT30;60269;52.502;16.732;2022-09-09T02:28:03;15.31;99.99
72320;SHT30;60269;52.502;16.732;2022-09-09T02:32:07;15.36;99.99
72320;SHT30;60269;52.502;16.732;2022-09-09T02:35:48;15.26;99.78
72320;SHT30;60269;52.502;16.732;2022-09-09T02:39:54;15.11;99.96
72320;SHT30;60269;52.502;16.732;2022-09-09T02:43:33;14.96;99.99
72320;SHT30;60269;52.502;16.732;2022-09-09T02:47:39;14.90;99.99
72320;SHT30;60269;52.502;16.732;2022-09-09T02:59:32;15.20;99.99
72320;SHT30;60269;52.502;16.732;2022-09-09T03:03:17;15.24;99.99
72320;SHT30;60269;52.502;16.732;2022-09-09T03:07:03;15.33;99.99
72320;SHT30;60269;52.502;16.732;2022-09-09T03:10:58;15.34;99.99
72320;SHT30;60269;52.502;16.732;2022-09-09T03:14:43;15.31;99.97
72320;SHT30;60269;52.502;16.732;2022-09-09T03:18:28;15.26;99.99
72320;SHT30;60269;52.502;16.732;2022-09-09T03:22:14;15.19;99.99
72320;SHT30;60269;52.502;16.732;2022-09-09T03:26:06;15.19;99.99
72320;SHT30;60269;52.502;16.732;2022-09-09T03:29:50;15.10;99.99
72320;SHT30;60269;52.502;16.732;2022-09-09T03:33:38;15.10;99.99
72320;SHT30;60269;52.502;16.732;2022-09-09T03:37:26;14.98;99.99
72320;SHT30;60269;52.502;16.732;2022-09-09T03:41:17;15.00;99.99
72320;SHT30;60269;52.502;16.732;2022-09-09T03:45:04;14.99;99.99
72320;SHT30;60269;52.502;16.732;2022-09-09T03:48:56;14.95;99.99
72320;SHT30;60269;52.502;16.732;2022-09-09T03:52:36;14.86;99.99
72320;SHT30;60269;52.502;16.732;2022-09-09T03:56:28;14.61;99.99
72320;SHT30;60269;52.502;16.732;2022-09-09T04:00:14;14.51;99.99
72320;SHT30;60269;52.502;16.732;2022-09-09T04:04:05;14.46;99.99
72320;SHT30;60269;52.502;16.732;2022-09-09T04:07:44;14.35;99.99
72320;SHT30;60269;52.502;16.732;2022-09-09T04:11:35;14.41;99.99
72320;SHT30;60269;52.502;16.732;2022-09-09T04:15:22;14.44;99.99
72320;SHT30;60269;52.502;16.732;2022-09-09T04:19:13;14.41;99.99
72320;SHT30;60269;52.502;16.732;2022-09-09T04:22:52;14.48;99.99
72320;SHT30;60269;52.502;16.732;2022-09-09T04:26:50;14.55;99.99
72320;SHT30;60269;52.502;16.732;2022-09-09T04:30:29;14.58;99.99
72320;SHT30;60269;52.502;16.732;2022-09-09T04:34:27;14.57;99.99
72320;SHT30;60269;52.502;16.732;2022-09-09T04:38:26;14.62;99.99
72320;SHT30;60269;52.502;16.732;2022-09-09T04:42:05;14.65;99.99
72320;SHT30;60269;52.502;16.732;2022-09-09T04:46:04;14.67;99.99
72320;SHT30;60269;52.502;16.732;2022-09-09T04:49:43;14.69;99.99
72320;SHT30;60269;52.502;16.732;2022-09-09T04:53:36;14.65;99.99
72320;SHT30;60269;52.502;16.732;2022-09-09T04:57:16;14.72;99.99
72320;SHT30;60269;52.502;16.732;2022-09-09T05:01:16;14.82;99.99
72320;SHT30;60269;52.502;16.732;2022-09-09T05:04:56;14.82;99.99
72320;SHT30;60269;52.502;16.732;2022-09-09T05:08:49;14.83;99.84
72320;SHT30;60269;52.502;16.732;2022-09-09T05:12:27;14.85;99.74
72320;SHT30;60269;52.502;16.732;2022-09-09T05:16:25;14.79;99.92
72320;SHT30;60269;52.502;16.732;2022-09-09T05:20:04;14.88;99.74
72320;SHT30;60269;52.502;16.732;2022-09-09T05:24:01;14.98;99.48
72320;SHT30;60269;52.502;16.732;2022-09-09T05:27:40;14.96;99.38
72320;SHT30;60269;52.502;16.732;2022-09-09T05:31:38;15.03;99.23
72320;SHT30;60269;52.502;16.732;2022-09-09T05:35:17;15.03;99.33
72320;SHT30;60269;52.502;16.732;2022-09-09T05:39:09;14.88;99.01
72320;SHT30;60269;52.502;16.732;2022-09-09T05:42:50;14.90;99.06
72320;SHT30;60269;52.502;16.732;2022-09-09T05:46:48;15.00;98.70
72320;SHT30;60269;52.502;16.732;2022-09-09T05:50:27;15.20;98.56
72320;SHT30;60269;52.502;16.732;2022-09-09T05:54:26;15.13;98.42
72320;SHT30;60269;52.502;16.732;2022-09-09T05:58:25;15.20;98.53
72320;SHT30;60269;52.502;16.732;2022-09-09T06:02:04;15.30;98.70
72320;SHT30;60269;52.502;16.732;2022-09-09T06:06:05;15.48;98.44
72320;SHT30;60269;52.502;16.732;2022-09-09T06:09:44;15.48;98.24
72320;SHT30;60269;52.502;16.732;2022-09-09T06:13:37;15.57;98.20
72320;SHT30;60269;52.502;16.732;2022-09-09T06:17:17;15.40;98.12
72320;SHT30;60269;52.502;16.732;2022-09-09T06:21:30;15.44;97.99
72320;SHT30;60269;52.502;16.732;2022-09-09T06:25:15;15.65;97.74
72320;SHT30;60269;52.502;16.732;2022-09-09T06:29:00;15.61;96.91
72320;SHT30;60269;52.502;16.732;2022-09-09T06:32:47;15.55;96.78
72320;SHT30;60269;52.502;16.732;2022-09-09T06:36:38;15.68;96.38
72320;SHT30;60269;52.502;16.732;2022-09-09T06:40:24;15.85;95.92
72320;SHT30;60269;52.502;16.732;2022-09-09T06:44:09;15.78;95.92
72320;SHT30;60269;52.502;16.732;2022-09-09T06:47:57;16.05;95.52
72320;SHT30;60269;52.502;16.732;2022-09-09T06:51:48;16.10;95.10
72320;SHT30;60269;52.502;16.732;2022-09-09T06:55:35;16.23;94.93
72320;SHT30;60269;52.502;16.732;2022-09-09T06:59:28;16.16;94.92
72320;SHT30;60269;52.502;16.732;2022-09-09T07:03:10;16.06;94.99
72320;SHT30;60269;52.502;16.732;2022-09-09T07:07:01;16.19;94.64
72320;SHT30;60269;52.502;16.732;2022-09-09T07:10:47;16.42;94.10
72320;SHT30;60269;52.502;16.732;2022-09-09T07:14:38;16.23;94.47
72320;SHT30;60269;52.502;16.732;2022-09-09T07:18:17;16.10;94.70
72320;SHT30;60269;52.502;16.732;2022-09-09T07:22:09;16.50;94.40
72320;SHT30;60269;52.502;16.732;2022-09-09T07:25:57;16.96;92.93
72320;SHT30;60269;52.502;16.732;2022-09-09T07:29:48;17.12;90.58
72320;SHT30;60269;52.502;16.732;2022-09-09T07:33:27;17.81;88.04
72320;SHT30;60269;52.502;16.732;2022-09-09T07:37:18;18.83;85.03
72320;SHT30;60269;52.502;16.732;2022-09-09T07:41:05;19.93;80.85
72320;SHT30;60269;52.502;16.732;2022-09-09T07:44:57;20.36;78.73
72320;SHT30;60269;52.502;16.732;2022-09-09T07:48:36;20.98;75.62
72320;SHT30;60269;52.502;16.732;2022-09-09T07:52:27;21.02;73.68
72320;SHT30;60269;52.502;16.732;2022-09-09T07:56:16;20.96;74.65
72320;SHT30;60269;52.502;16.732;2022-09-09T08:00:08;20.63;77.45
72320;SHT30;60269;52.502;16.732;2022-09-09T08:03:54;20.72;72.89
72320;SHT30;60269;52.502;16.732;2022-09-09T08:07:46;19.90;77.50
72320;SHT30;60269;52.502;16.732;2022-09-09T08:11:32;20.70;75.88
72320;SHT30;60269;52.502;16.732;2022-09-09T08:15:23;21.63;74.30
72320;SHT30;60269;52.502;16.732;2022-09-09T08:19:02;22.01;71.59
72320;SHT30;60269;52.502;16.732;2022-09-09T08:22:55;22.77;69.74
72320;SHT30;60269;52.502;16.732;2022-09-09T08:26:43;23.03;68.78
72320;SHT30;60269;52.502;16.732;2022-09-09T08:30:35;23.08;67.53
72320;SHT30;60269;52.502;16.732;2022-09-09T08:34:14;23.00;68.56
72320;SHT30;60269;52.502;16.732;2022-09-09T08:38:05;23.69;65.12
72320;SHT30;60269;52.502;16.732;2022-09-09T08:46:45;23.17;64.93
72320;SHT30;60269;52.502;16.732;2022-09-09T08:53:55;24.05;65.91
72320;SHT30;60269;52.502;16.732;2022-09-09T08:57:42;23.69;63.02
72320;SHT30;60269;52.502;16.732;2022-09-09T09:01:42;24.43;62.62
72320;SHT30;60269;52.502;16.732;2022-09-09T09:17:25;24.82;60.53
72320;SHT30;60269;52.502;16.732;2022-09-09T09:21:20;24.31;61.01
72320;SHT30;60269;52.502;16.732;2022-09-09T09:25:26;24.17;61.19
72320;SHT30;60269;52.502;16.732;2022-09-09T09:29:17;24.03;60.67
72320;SHT30;60269;52.502;16.732;2022-09-09T09:33:33;24.58;58.13
72320;SHT30;60269;52.502;16.732;2022-09-09T09:37:34;24.55;61.41
72320;SHT30;60269;52.502;16.732;2022-09-09T09:41:40;25.20;59.79
72320;SHT30;60269;52.502;16.732;2022-09-09T09:45:43;26.67;54.53
72320;SHT30;60269;52.502;16.732;2022-09-09T09:49:59;27.51;52.29
72320;SHT30;60269;52.502;16.732;2022-09-09T09:58:15;25.50;54.35
72320;SHT30;60269;52.502;16.732;2022-09-09T10:01:54;25.85;54.31
72320;SHT30;60269;52.502;16.732;2022-09-09T10:05:53;23.69;58.77
72320;SHT30;60269;52.502;16.732;2022-09-09T10:09:31;24.33;58.54
72320;SHT30;60269;52.502;16.732;2022-09-09T10:13:31;23.63;60.16
72320;SHT30;60269;52.502;16.732;2022-09-09T10:17:27;23.48;60.00
72320;SHT30;60269;52.502;16.732;2022-09-09T10:25:38;24.27;60.21
72320;SHT30;60269;52.502;16.732;2022-09-09T10:33:54;23.38;59.26
72320;SHT30;60269;52.502;16.732;2022-09-09T10:58:48;24.89;54.36
72320;SHT30;60269;52.502;16.732;2022-09-09T11:02:42;24.38;53.52
72320;SHT30;60269;52.502;16.732;2022-09-09T11:06:25;24.26;56.55
72320;SHT30;60269;52.502;16.732;2022-09-09T11:10:53;24.47;54.63
72320;SHT30;60269;52.502;16.732;2022-09-09T11:15:04;24.98;51.60
72320;SHT30;60269;52.502;16.732;2022-09-09T11:23:27;25.25;53.01
72320;SHT30;60269;52.502;16.732;2022-09-09T11:27:27;26.09;50.51
72320;SHT30;60269;52.502;16.732;2022-09-09T11:36:00;25.59;48.08
72320;SHT30;60269;52.502;16.732;2022-09-09T11:39:51;25.98;48.02
72320;SHT30;60269;52.502;16.732;2022-09-09T11:43:48;25.01;50.18
72320;SHT30;60269;52.502;16.732;2022-09-09T11:47:30;26.33;48.79
72320;SHT30;60269;52.502;16.732;2022-09-09T11:51:30;25.98;47.58
72320;SHT30;60269;52.502;16.732;2022-09-09T11:55:31;26.02;45.86
72320;SHT30;60269;52.502;16.732;2022-09-09T11:59:32;26.38;47.59
72320;SHT30;60269;52.502;16.732;2022-09-09T12:03:41;26.56;48.09
72320;SHT30;60269;52.502;16.732;2022-09-09T12:07:50;26.15;49.01
72320;SHT30;60269;52.502;16.732;2022-09-09T12:11:31;25.70;50.37
72320;SHT30;60269;52.502;16.732;2022-09-09T12:15:26;26.69;48.35
72320;SHT30;60269;52.502;16.732;2022-09-09T12:19:19;26.17;47.65
72320;SHT30;60269;52.502;16.732;2022-09-09T12:27:18;26.43;47.58
72320;SHT30;60269;52.502;16.732;2022-09-09T12:35:09;26.86;44.15
72320;SHT30;60269;52.502;16.732;2022-09-09T12:39:14;26.91;45.21
72320;SHT30;60269;52.502;16.732;2022-09-09T12:43:01;27.20;45.54
72320;SHT30;60269;52.502;16.732;2022-09-09T12:46:46;26.45;46.98
72320;SHT30;60269;52.502;16.732;2022-09-09T12:50:37;26.01;47.15
72320;SHT30;60269;52.502;16.732;2022-09-09T12:54:29;27.39;43.47
72320;SHT30;60269;52.502;16.732;2022-09-09T12:58:17;26.46;44.99
72320;SHT30;60269;52.502;16.732;2022-09-09T13:02:16;26.12;46.22
72320;SHT30;60269;52.502;16.732;2022-09-09T13:06:13;27.73;42.33
72320;SHT30;60269;52.502;16.732;2022-09-09T13:10:13;27.92;41.76
72320;SHT30;60269;52.502;16.732;2022-09-09T13:14:30;27.86;43.55
72320;SHT30;60269;52.502;16.732;2022-09-09T13:18:34;27.14;43.01
72320;SHT30;60269;52.502;16.732;2022-09-09T13:22:38;27.35;41.79
72320;SHT30;60269;52.502;16.732;2022-09-09T13:26:26;27.72;40.66
72320;SHT30;60269;52.502;16.732;2022-09-09T13:34:14;26.09;46.15
72320;SHT30;60269;52.502;16.732;2022-09-09T13:38:17;24.53;48.90
72320;SHT30;60269;52.502;16.732;2022-09-09T13:41:58;24.71;49.03
72320;SHT30;60269;52.502;16.732;2022-09-09T13:46:03;24.21;50.32
72320;SHT30;60269;52.502;16.732;2022-09-09T13:49:42;24.16;50.57
72320;SHT30;60269;52.502;16.732;2022-09-09T13:53:34;24.33;51.46
72320;SHT30;60269;52.502;16.732;2022-09-09T13:57:18;24.54;50.88
72320;SHT30;60269;52.502;16.732;2022-09-09T14:01:16;25.73;47.98
72320;SHT30;60269;52.502;16.732;2022-09-09T14:05:00;26.32;46.54
72320;SHT30;60269;52.502;16.732;2022-09-09T14:08:52;26.09;45.10
72320;SHT30;60269;52.502;16.732;2022-09-09T14:12:30;26.43;46.86
72320;SHT30;60269;52.502;16.732;2022-09-09T14:16:29;27.23;45.14
72320;SHT30;60269;52.502;16.732;2022-09-09T14:20:08;26.43;44.68
72320;SHT30;60269;52.502;16.732;2022-09-09T14:23:59;26.48;45.37
72320;SHT30;60269;52.502;16.732;2022-09-09T14:27:38;26.80;44.48
72320;SHT30;60269;52.502;16.732;2022-09-09T14:31:37;26.43;43.68
72320;SHT30;60269;52.502;16.732;2022-09-09T14:35:16;26.43;44.52
72320;SHT30;60269;52.502;16.732;2022-09-09T14:39:08;25.84;47.59
72320;SHT30;60269;52.502;16.732;2022-09-09T14:42:47;25.39;46.02
72320;SHT30;60269;52.502;16.732;2022-09-09T14:46:53;25.46;46.12
72320;SHT30;60269;52.502;16.732;2022-09-09T14:50:52;24.89;48.54
72320;SHT30;60269;52.502;16.732;2022-09-09T14:54:32;25.40;46.69
72320;SHT30;60269;52.502;16.732;2022-09-09T14:58:23;25.54;46.16
72320;SHT30;60269;52.502;16.732;2022-09-09T15:02:03;25.11;46.91
72320;SHT30;60269;52.502;16.732;2022-09-09T15:06:08;24.92;49.08
72320;SHT30;60269;52.502;16.732;2022-09-09T15:09:47;24.88;48.49
72320;SHT30;60269;52.502;16.732;2022-09-09T15:13:40;25.13;48.75
72320;SHT30;60269;52.502;16.732;2022-09-09T15:17:25;25.75;47.43
72320;SHT30;60269;52.502;16.732;2022-09-09T15:21:19;25.98;46.26
72320;SHT30;60269;52.502;16.732;2022-09-09T15:25:05;25.42;49.41
72320;SHT30;60269;52.502;16.732;2022-09-09T15:28:50;25.91;46.90
72320;SHT30;60269;52.502;16.732;2022-09-09T15:32:35;26.31;48.35
72320;SHT30;60269;52.502;16.732;2022-09-09T15:40:15;25.56;49.42
72320;SHT30;60269;52.502;16.732;2022-09-09T15:44:00;26.19;48.53
72320;SHT30;60269;52.502;16.732;2022-09-09T15:47:47;26.04;47.87
72320;SHT30;60269;52.502;16.732;2022-09-09T15:51:41;24.21;52.38
72320;SHT30;60269;52.502;16.732;2022-09-09T15:55:28;23.79;54.27
72320;SHT30;60269;52.502;16.732;2022-09-09T15:59:13;23.79;53.61
72320;SHT30;60269;52.502;16.732;2022-09-09T16:02:59;24.95;50.73
72320;SHT30;60269;52.502;16.732;2022-09-09T16:07:03;25.67;50.49
72320;SHT30;60269;52.502;16.732;2022-09-09T16:10:41;25.15;50.78
72320;SHT30;60269;52.502;16.732;2022-09-09T16:14:33;24.30;52.16
72320;SHT30;60269;52.502;16.732;2022-09-09T16:18:13;24.65;51.44
72320;SHT30;60269;52.502;16.732;2022-09-09T16:22:12;24.58;52.58
72320;SHT30;60269;52.502;16.732;2022-09-09T16:25:56;24.85;50.25
72320;SHT30;60269;52.502;16.732;2022-09-09T16:29:50;24.34;52.50
72320;SHT30;60269;52.502;16.732;2022-09-09T16:33:28;24.31;53.35
72320;SHT30;60269;52.502;16.732;2022-09-09T16:37:27;24.20;52.68
72320;SHT30;60269;52.502;16.732;2022-09-09T16:41:06;24.37;53.63
72320;SHT30;60269;52.502;16.732;2022-09-09T16:44:58;24.26;53.90
72320;SHT30;60269;52.502;16.732;2022-09-09T16:48:36;24.09;54.72
72320;SHT30;60269;52.502;16.732;2022-09-09T16:52:37;23.90;54.98
72320;SHT30;60269;52.502;16.732;2022-09-09T16:56:18;23.49;54.81
72320;SHT30;60269;52.502;16.732;2022-09-09T17:00:12;22.59;59.26
72320;SHT30;60269;52.502;16.732;2022-09-09T17:03:54;21.94;60.54
72320;SHT30;60269;52.502;16.732;2022-09-09T17:07:53;21.47;63.28
72320;SHT30;60269;52.502;16.732;2022-09-09T17:11:34;21.16;64.59
72320;SHT30;60269;52.502;16.732;2022-09-09T17:15:26;20.77;65.63
72320;SHT30;60269;52.502;16.732;2022-09-09T17:19:04;20.58;66.37
72320;SHT30;60269;52.502;16.732;2022-09-09T17:23:04;20.33;67.37
72320;SHT30;60269;52.502;16.732;2022-09-09T17:26:42;20.12;67.93
72320;SHT30;60269;52.502;16.732;2022-09-09T17:30:34;19.93;68.52
72320;SHT30;60269;52.502;16.732;2022-09-09T17:34:12;19.72;69.46
72320;SHT30;60269;52.502;16.732;2022-09-09T17:38:11;19.45;70.41
72320;SHT30;60269;52.502;16.732;2022-09-09T17:41:49;19.27;71.73
72320;SHT30;60269;52.502;16.732;2022-09-09T17:45:41;19.07;72.37
72320;SHT30;60269;52.502;16.732;2022-09-09T17:49:19;18.89;73.28
72320;SHT30;60269;52.502;16.732;2022-09-09T17:53:18;18.69;74.05
72320;SHT30;60269;52.502;16.732;2022-09-09T17:56:56;18.46;75.25
72320;SHT30;60269;52.502;16.732;2022-09-09T18:00:48;18.34;76.64
72320;SHT30;60269;52.502;16.732;2022-09-09T18:04:26;18.27;77.38
72320;SHT30;60269;52.502;16.732;2022-09-09T18:08:25;18.08;78.77
72320;SHT30;60269;52.502;16.732;2022-09-09T18:12:07;18.00;78.40
72320;SHT30;60269;52.502;16.732;2022-09-09T18:16:00;17.93;78.14
72320;SHT30;60269;52.502;16.732;2022-09-09T18:19:38;17.90;78.28
72320;SHT30;60269;52.502;16.732;2022-09-09T18:23:39;17.91;78.08
72320;SHT30;60269;52.502;16.732;2022-09-09T18:27:18;17.80;79.14
72320;SHT30;60269;52.502;16.732;2022-09-09T18:31:12;17.63;80.35
72320;SHT30;60269;52.502;16.732;2022-09-09T18:34:51;17.45;81.46
72320;SHT30;60269;52.502;16.732;2022-09-09T18:38:51;17.18;82.87
72320;SHT30;60269;52.502;16.732;2022-09-09T18:42:29;17.10;83.05
72320;SHT30;60269;52.502;16.732;2022-09-09T18:46:22;17.02;83.60
72320;SHT30;60269;52.502;16.732;2022-09-09T18:50:00;16.85;84.56
72320;SHT30;60269;52.502;16.732;2022-09-09T18:54:01;16.75;84.88
72320;SHT30;60269;52.502;16.732;2022-09-09T18:57:47;16.57;85.63
72320;SHT30;60269;52.502;16.732;2022-09-09T19:01:39;16.43;86.48
72320;SHT30;60269;52.502;16.732;2022-09-09T19:05:18;16.49;86.13
72320;SHT30;60269;52.502;16.732;2022-09-09T19:09:12;16.47;85.93
72320;SHT30;60269;52.502;16.732;2022-09-09T19:12:58;16.49;85.85
72320;SHT30;60269;52.502;16.732;2022-09-09T19:16:50;16.46;86.05
72320;SHT30;60269;52.502;16.732;2022-09-09T19:20:28;16.47;86.10
72320;SHT30;60269;52.502;16.732;2022-09-09T19:24:22;16.29;87.16
72320;SHT30;60269;52.502;16.732;2022-09-09T19:28:07;16.29;87.15
72320;SHT30;60269;52.502;16.732;2022-09-09T19:32:00;16.37;86.41
72320;SHT30;60269;52.502;16.732;2022-09-09T19:36:01;16.33;86.92
72320;SHT30;60269;52.502;16.732;2022-09-09T19:39:53;16.19;87.42
72320;SHT30;60269;52.502;16.732;2022-09-09T19:43:39;16.09;87.89
72320;SHT30;60269;52.502;16.732;2022-09-09T19:47:31;16.15;88.27
72320;SHT30;60269;52.502;16.732;2022-09-09T19:51:12;16.37;86.86
72320;SHT30;60269;52.502;16.732;2022-09-09T19:55:04;16.59;86.57
72320;SHT30;60269;52.502;16.732;2022-09-09T19:58:50;16.68;85.97
72320;SHT30;60269;52.502;16.732;2022-09-09T20:02:42;16.81;85.48
72320;SHT30;60269;52.502;16.732;2022-09-09T20:06:42;16.98;84.87
72320;SHT30;60269;52.502;16.732;2022-09-09T20:10:21;17.15;84.52
72320;SHT30;60269;52.502;16.732;2022-09-09T20:14:13;17.18;84.40
72320;SHT30;60269;52.502;16.732;2022-09-09T20:17:59;17.23;84.25
72320;SHT30;60269;52.502;16.732;2022-09-09T20:21:45;17.31;84.01
72320;SHT30;60269;52.502;16.732;2022-09-09T20:25:36;17.33;83.43
72320;SHT30;60269;52.502;16.732;2022-09-09T20:29:29;17.29;83.90
72320;SHT30;60269;52.502;16.732;2022-09-09T20:33:14;17.15;84.14
72320;SHT30;60269;52.502;16.732;2022-09-09T20:36:59;16.95;85.18
72320;SHT30;60269;52.502;16.732;2022-09-09T20:40:46;16.87;85.22
72320;SHT30;60269;52.502;16.732;2022-09-09T20:44:38;16.87;85.16
72320;SHT30;60269;52.502;16.732;2022-09-09T20:48:23;16.95;85.28
72320;SHT30;60269;52.502;16.732;2022-09-09T20:52:09;16.98;85.12
72320;SHT30;60269;52.502;16.732;2022-09-09T20:55:58;17.00;84.99
72320;SHT30;60269;52.502;16.732;2022-09-09T20:59:50;16.88;85.41
72320;SHT30;60269;52.502;16.732;2022-09-09T21:03:35;16.81;86.22
72320;SHT30;60269;52.502;16.732;2022-09-09T21:07:20;16.81;86.85
72320;SHT30;60269;52.502;16.732;2022-09-09T21:11:05;16.75;87.70
72320;SHT30;60269;52.502;16.732;2022-09-09T21:14:57;16.64;88.39
72320;SHT30;60269;52.502;16.732;2022-09-09T21:18:42;16.56;88.95
72320;SHT30;60269;52.502;16.732;2022-09-09T21:22:27;16.59;88.70
72320;SHT30;60269;52.502;16.732;2022-09-09T21:26:13;16.57;90.46
72320;SHT30;60269;52.502;16.732;2022-09-09T21:30:06;16.60;90.05
72320;SHT30;60269;52.502;16.732;2022-09-09T21:33:51;16.71;88.66
72320;SHT30;60269;52.502;16.732;2022-09-09T21:37:36;16.65;89.19
72320;SHT30;60269;52.502;16.732;2022-09-09T21:41:21;16.53;89.73
72320;SHT30;60269;52.502;16.732;2022-09-09T21:45:13;16.47;89.42
72320;SHT30;60269;52.502;16.732;2022-09-09T21:48:58;16.36;90.22
72320;SHT30;60269;52.502;16.732;2022-09-09T21:52:43;16.22;91.29
72320;SHT30;60269;52.502;16.732;2022-09-09T21:56:28;16.15;91.50
72320;SHT30;60269;52.502;16.732;2022-09-09T22:00:20;16.04;91.78
72320;SHT30;60269;52.502;16.732;2022-09-09T22:04:05;15.98;92.08
72320;SHT30;60269;52.502;16.732;2022-09-09T22:07:50;15.96;92.60
72320;SHT30;60269;52.502;16.732;2022-09-09T22:11:37;16.01;93.10
72320;SHT30;60269;52.502;16.732;2022-09-09T22:15:29;16.10;91.60
72320;SHT30;60269;52.502;16.732;2022-09-09T22:19:16;16.05;91.88
72320;SHT30;60269;52.502;16.732;2022-09-09T22:23:01;16.05;92.08
72320;SHT30;60269;52.502;16.732;2022-09-09T22:26:46;16.34;90.43
72320;SHT30;60269;52.502;16.732;2022-09-09T22:30:39;16.52;89.01
72320;SHT30;60269;52.502;16.732;2022-09-09T22:34:24;16.43;89.26
72320;SHT30;60269;52.502;16.732;2022-09-09T22:38:10;16.44;89.09
72320;SHT30;60269;52.502;16.732;2022-09-09T22:41:55;16.22;89.92
72320;SHT30;60269;52.502;16.732;2022-09-09T22:45:48;16.25;90.49
72320;SHT30;60269;52.502;16.732;2022-09-09T22:49:35;16.16;90.35
72320;SHT30;60269;52.502;16.732;2022-09-09T22:53:27;16.15;90.82
72320;SHT30;60269;52.502;16.732;2022-09-09T22:57:05;15.98;91.36
72320;SHT30;60269;52.502;16.732;2022-09-09T23:00:58;15.85;92.00
72320;SHT30;60269;52.502;16.732;2022-09-09T23:04:43;15.77;92.17
72320;SHT30;60269;52.502;16.732;2022-09-09T23:08:36;15.79;91.94
72320;SHT30;60269;52.502;16.732;2022-09-09T23:12:15;15.88;90.85
72320;SHT30;60269;52.502;16.732;2022-09-09T23:16:10;15.92;92.08
72320;SHT30;60269;52.502;16.732;2022-09-09T23:19:55;15.86;92.63
72320;SHT30;60269;52.502;16.732;2022-09-09T23:23:51;15.85;92.72
72320;SHT30;60269;52.502;16.732;2022-09-09T23:27:29;15.91;92.63
72320;SHT30;60269;52.502;16.732;2022-09-09T23:31:23;15.86;92.58
72320;SHT30;60269;52.502;16.732;2022-09-09T23:35:09;15.96;92.75
72320;SHT30;60269;52.502;16.732;2022-09-09T23:39:03;16.06;93.06
72320;SHT30;60269;52.502;16.732;2022-09-09T23:42:42;15.99;93.04
72320;SHT30;60269;52.502;16.732;2022-09-09T23:46:34;15.86;93.47
72320;SHT30;60269;52.502;16.732;2022-09-09T23:50:19;15.86;93.36
72320;SHT30;60269;52.502;16.732;2022-09-09T23:54:11;15.82;93.29
72320;SHT30;60269;52.502;16.732;2022-09-09T23:57:49;15.86;92.77
